sensor_id;sensor_type;location;lat;lon;timestamp;pressure;altitude;pressure_sealevel;temperature;humidity
69982;BME280;57319;56.274;43.980;2024-01-15T00:00:49;98480.69;;;-12.80;nan
69982;BME280;57319;56.274;43.980;2024-01-15T00:03:14;98478.31;;;-12.78;nan
69982;BME280;57319;56.274;43.980;2024-01-15T00:05:40;98481.66;;;-12.63;nan
69982;BME280;57319;56.274;43.980;2024-01-15T00:08:05;98480.75;;;-12.65;nan
69982;BME280;57319;56.274;43.980;2024-01-15T00:10:32;98469.31;;;-12.48;nan
69982;BME280;57319;56.274;43.980;2024-01-15T00:12:58;98467.31;;;-12.68;nan
69982;BME280;57319;56.274;43.980;2024-01-15T00:15:23;98467.00;;;-12.59;nan
69982;BME280;57319;56.274;43.980;2024-01-15T00:17:49;98462.53;;;-12.50;nan
69982;BME280;57319;56.274;43.980;2024-01-15T00:20:14;98457.94;;;-12.44;nan
69982;BME280;57319;56.274;43.980;2024-01-15T00:22:40;98456.50;;;-12.84;nan
69982;BME280;57319;56.274;43.980;2024-01-15T00:25:05;98462.28;;;-12.55;nan
69982;BME280;57319;56.274;43.980;2024-01-15T00:27:32;98461.03;;;-12.48;nan
69982;BME280;57319;56.274;43.980;2024-01-15T00:29:57;98468.00;;;-12.56;nan
69982;BME280;57319;56.274;43.980;2024-01-15T00:32:23;98458.88;;;-12.57;nan
69982;BME280;57319;56.274;43.980;2024-01-15T00:34:48;98461.38;;;-12.57;nan
69982;BME280;57319;56.274;43.980;2024-01-15T00:37:14;98452.81;;;-12.62;nan
69982;BME280;57319;56.274;43.980;2024-01-15T00:39:39;98454.00;;;-12.55;nan
69982;BME280;57319;56.274;43.980;2024-01-15T00:42:05;98449.09;;;-12.69;nan
69982;BME280;57319;56.274;43.980;2024-01-15T00:44:30;98451.25;;;-12.60;nan
69982;BME280;57319;56.274;43.980;2024-01-15T00:46:56;98459.56;;;-12.59;nan
69982;BME280;57319;56.274;43.980;2024-01-15T00:49:21;98447.22;;;-12.73;nan
69982;BME280;57319;56.274;43.980;2024-01-15T00:51:47;98444.84;;;-12.56;nan
69982;BME280;57319;56.274;43.980;2024-01-15T00:54:12;98450.03;;;-12.82;nan
69982;BME280;57319;56.274;43.980;2024-01-15T00:56:38;98447.22;;;-12.73;nan
69982;BME280;57319;56.274;43.980;2024-01-15T00:59:04;98451.03;;;-12.50;nan
69982;BME280;57319;56.274;43.980;2024-01-15T01:01:29;98444.84;;;-12.56;nan
69982;BME280;57319;56.274;43.980;2024-01-15T01:03:55;98438.25;;;-12.56;nan
69982;BME280;57319;56.274;43.980;2024-01-15T01:06:21;98443.94;;;-12.87;nan
69982;BME280;57319;56.274;43.980;2024-01-15T01:08:46;98440.63;;;-13.29;nan
69982;BME280;57319;56.274;43.980;2024-01-15T01:11:15;98437.19;;;-12.89;nan
69982;BME280;57319;56.274;43.980;2024-01-15T01:13:41;98434.31;;;-12.67;nan
69982;BME280;57319;56.274;43.980;2024-01-15T01:16:07;98435.78;;;-12.56;nan
69982;BME280;57319;56.274;43.980;2024-01-15T01:18:32;98432.09;;;-12.77;nan
69982;BME280;57319;56.274;43.980;2024-01-15T01:20:58;98423.41;;;-12.99;nan
69982;BME280;57319;56.274;43.980;2024-01-15T01:23:23;98425.59;;;-12.75;nan
69982;BME280;57319;56.274;43.980;2024-01-15T01:25:49;98429.88;;;-12.73;nan
69982;BME280;57319;56.274;43.980;2024-01-15T01:28:14;98410.91;;;-12.57;nan
69982;BME280;57319;56.274;43.980;2024-01-15T01:30:40;98415.84;;;-12.72;nan
69982;BME280;57319;56.274;43.980;2024-01-15T01:33:05;98414.16;;;-12.58;nan
69982;BME280;57319;56.274;43.980;2024-01-15T01:35:31;98406.81;;;-12.57;nan
69982;BME280;57319;56.274;43.980;2024-01-15T01:37:56;98401.28;;;-12.53;nan
69982;BME280;57319;56.274;43.980;2024-01-15T01:40:22;98409.34;;;-12.85;nan
69982;BME280;57319;56.274;43.980;2024-01-15T01:42:48;98401.84;;;-12.72;nan
69982;BME280;57319;56.274;43.980;2024-01-15T01:45:14;98402.69;;;-12.71;nan
69982;BME280;57319;56.274;43.980;2024-01-15T01:47:40;98398.88;;;-12.94;nan
69982;BME280;57319;56.274;43.980;2024-01-15T01:50:06;98388.84;;;-12.83;nan
69982;BME280;57319;56.274;43.980;2024-01-15T01:52:32;98385.59;;;-12.67;nan
69982;BME280;57319;56.274;43.980;2024-01-15T01:55:00;98390.25;;;-13.01;nan
69982;BME280;57319;56.274;43.980;2024-01-15T01:57:26;98387.47;;;-12.77;nan
69982;BME280;57319;56.274;43.980;2024-01-15T01:59:53;98388.44;;;-13.04;nan
69982;BME280;57319;56.274;43.980;2024-01-15T02:02:19;98384.22;;;-12.76;nan
69982;BME280;57319;56.274;43.980;2024-01-15T02:04:47;98384.50;;;-12.72;nan
69982;BME280;57319;56.274;43.980;2024-01-15T02:07:13;98378.63;;;-12.87;nan
69982;BME280;57319;56.274;43.980;2024-01-15T02:09:39;98391.50;;;-13.08;nan
69982;BME280;57319;56.274;43.980;2024-01-15T02:12:05;98392.81;;;-13.28;nan
69982;BME280;57319;56.274;43.980;2024-01-15T02:14:31;98383.59;;;-13.02;nan
69982;BME280;57319;56.274;43.980;2024-01-15T02:16:56;98399.16;;;-12.90;nan
69982;BME280;57319;56.274;43.980;2024-01-15T02:19:22;98388.03;;;-12.97;nan
69982;BME280;57319;56.274;43.980;2024-01-15T02:21:47;98394.56;;;-12.84;nan
69982;BME280;57319;56.274;43.980;2024-01-15T02:24:13;98388.34;;;-13.05;nan
69982;BME280;57319;56.274;43.980;2024-01-15T02:26:38;98398.13;;;-13.22;nan
69982;BME280;57319;56.274;43.980;2024-01-15T02:29:08;98381.13;;;-13.02;nan
69982;BME280;57319;56.274;43.980;2024-01-15T02:31:36;98388.88;;;-12.96;nan
69982;BME280;57319;56.274;43.980;2024-01-15T02:34:01;98389.34;;;-13.17;nan
69982;BME280;57319;56.274;43.980;2024-01-15T02:36:27;98385.00;;;-13.49;nan
69982;BME280;57319;56.274;43.980;2024-01-15T02:38:52;98375.88;;;-13.07;nan
69982;BME280;57319;56.274;43.980;2024-01-15T02:41:18;98370.44;;;-12.86;nan
69982;BME280;57319;56.274;43.980;2024-01-15T02:43:43;98381.59;;;-13.08;nan
69982;BME280;57319;56.274;43.980;2024-01-15T02:46:09;98376.94;;;-12.88;nan
69982;BME280;57319;56.274;43.980;2024-01-15T02:48:34;98372.84;;;-12.88;nan
69982;BME280;57319;56.274;43.980;2024-01-15T02:51:01;98374.69;;;-12.99;nan
69982;BME280;57319;56.274;43.980;2024-01-15T02:53:27;98374.19;;;-12.93;nan
69982;BME280;57319;56.274;43.980;2024-01-15T02:55:53;98369.78;;;-12.69;nan
69982;BME280;57319;56.274;43.980;2024-01-15T02:58:18;98373.31;;;-12.65;nan
69982;BME280;57319;56.274;43.980;2024-01-15T03:00:44;98378.44;;;-13.05;nan
69982;BME280;57319;56.274;43.980;2024-01-15T03:03:09;98380.63;;;-12.97;nan
69982;BME280;57319;56.274;43.980;2024-01-15T03:05:35;98374.16;;;-12.65;nan
69982;BME280;57319;56.274;43.980;2024-01-15T03:08:00;98361.91;;;-12.62;nan
69982;BME280;57319;56.274;43.980;2024-01-15T03:10:26;98376.78;;;-12.76;nan
69982;BME280;57319;56.274;43.980;2024-01-15T03:12:51;98370.22;;;-12.61;nan
69982;BME280;57319;56.274;43.980;2024-01-15T03:15:17;98363.56;;;-12.62;nan
69982;BME280;57319;56.274;43.980;2024-01-15T03:17:43;98365.59;;;-12.55;nan
69982;BME280;57319;56.274;43.980;2024-01-15T03:20:10;98361.13;;;-12.90;nan
69982;BME280;57319;56.274;43.980;2024-01-15T03:22:35;98358.34;;;-12.82;nan
69982;BME280;57319;56.274;43.980;2024-01-15T03:25:01;98361.50;;;-12.54;nan
69982;BME280;57319;56.274;43.980;2024-01-15T03:27:27;98362.09;;;-12.58;nan
69982;BME280;57319;56.274;43.980;2024-01-15T03:29:52;98356.63;;;-12.68;nan
69982;BME280;57319;56.274;43.980;2024-01-15T03:32:18;98362.81;;;-12.61;nan
69982;BME280;57319;56.274;43.980;2024-01-15T03:34:44;98362.53;;;-12.66;nan
69982;BME280;57319;56.274;43.980;2024-01-15T03:37:11;98361.47;;;-12.99;nan
69982;BME280;57319;56.274;43.980;2024-01-15T03:39:36;98353.88;;;-12.87;nan
69982;BME280;57319;56.274;43.980;2024-01-15T03:42:02;98357.72;;;-12.63;nan
69982;BME280;57319;56.274;43.980;2024-01-15T03:44:28;98363.06;;;-13.15;nan
69982;BME280;57319;56.274;43.980;2024-01-15T03:46:53;98349.00;;;-12.56;nan
69982;BME280;57319;56.274;43.980;2024-01-15T03:49:19;98351.84;;;-12.65;nan
69982;BME280;57319;56.274;43.980;2024-01-15T03:51:45;98347.50;;;-12.54;nan
69982;BME280;57319;56.274;43.980;2024-01-15T03:54:10;98351.41;;;-12.57;nan
69982;BME280;57319;56.274;43.980;2024-01-15T03:56:36;98343.81;;;-12.46;nan
69982;BME280;57319;56.274;43.980;2024-01-15T03:59:01;98349.81;;;-12.57;nan
69982;BME280;57319;56.274;43.980;2024-01-15T04:01:27;98346.44;;;-12.57;nan
69982;BME280;57319;56.274;43.980;2024-01-15T04:03:52;98341.41;;;-12.44;nan
69982;BME280;57319;56.274;43.980;2024-01-15T04:06:18;98345.69;;;-12.41;nan
69982;BME280;57319;56.274;43.980;2024-01-15T04:08:44;98339.59;;;-12.47;nan
69982;BME280;57319;56.274;43.980;2024-01-15T04:11:09;98342.16;;;-12.60;nan
69982;BME280;57319;56.274;43.980;2024-01-15T04:13:34;98338.66;;;-12.34;nan
69982;BME280;57319;56.274;43.980;2024-01-15T04:16:00;98345.69;;;-12.41;nan
69982;BME280;57319;56.274;43.980;2024-01-15T04:18:26;98341.16;;;-12.78;nan
69982;BME280;57319;56.274;43.980;2024-01-15T04:20:51;98342.53;;;-12.69;nan
69982;BME280;57319;56.274;43.980;2024-01-15T04:23:17;98344.56;;;-12.76;nan
69982;BME280;57319;56.274;43.980;2024-01-15T04:25:42;98341.34;;;-12.60;nan
69982;BME280;57319;56.274;43.980;2024-01-15T04:28:09;98342.25;;;-12.43;nan
69982;BME280;57319;56.274;43.980;2024-01-15T04:30:35;98340.56;;;-12.59;nan
69982;BME280;57319;56.274;43.980;2024-01-15T04:33:01;98350.81;;;-12.68;nan
69982;BME280;57319;56.274;43.980;2024-01-15T04:35:26;98342.78;;;-12.49;nan
69982;BME280;57319;56.274;43.980;2024-01-15T04:37:52;98349.59;;;-12.30;nan
69982;BME280;57319;56.274;43.980;2024-01-15T04:40:17;98350.13;;;-12.51;nan
69982;BME280;57319;56.274;43.980;2024-01-15T04:42:43;98360.41;;;-12.44;nan
69982;BME280;57319;56.274;43.980;2024-01-15T04:45:11;98361.16;;;-12.75;nan
69982;BME280;57319;56.274;43.980;2024-01-15T04:47:37;98349.44;;;-12.63;nan
69982;BME280;57319;56.274;43.980;2024-01-15T04:50:04;98354.75;;;-13.15;nan
69982;BME280;57319;56.274;43.980;2024-01-15T04:52:29;98351.75;;;-12.66;nan
69982;BME280;57319;56.274;43.980;2024-01-15T04:54:55;98351.41;;;-12.57;nan
69982;BME280;57319;56.274;43.980;2024-01-15T04:57:21;98361.75;;;-12.50;nan
69982;BME280;57319;56.274;43.980;2024-01-15T04:59:46;98351.25;;;-12.46;nan
69982;BME280;57319;56.274;43.980;2024-01-15T05:02:12;98358.09;;;-12.41;nan
69982;BME280;57319;56.274;43.980;2024-01-15T05:04:37;98354.16;;;-12.53;nan
69982;BME280;57319;56.274;43.980;2024-01-15T05:07:03;98354.91;;;-12.84;nan
69982;BME280;57319;56.274;43.980;2024-01-15T05:09:28;98350.13;;;-12.51;nan
69982;BME280;57319;56.274;43.980;2024-01-15T05:11:54;98352.53;;;-12.37;nan
69982;BME280;57319;56.274;43.980;2024-01-15T05:14:19;98350.81;;;-12.38;nan
69982;BME280;57319;56.274;43.980;2024-01-15T05:16:49;98345.84;;;-12.23;nan
69982;BME280;57319;56.274;43.980;2024-01-15T05:19:14;98350.38;;;-12.46;nan
69982;BME280;57319;56.274;43.980;2024-01-15T05:21:40;98342.00;;;-12.33;nan
69982;BME280;57319;56.274;43.980;2024-01-15T05:24:07;98351.25;;;-12.31;nan
69982;BME280;57319;56.274;43.980;2024-01-15T05:26:33;98345.00;;;-12.24;nan
69982;BME280;57319;56.274;43.980;2024-01-15T05:28:59;98346.06;;;-12.19;nan
69982;BME280;57319;56.274;43.980;2024-01-15T05:31:24;98338.38;;;-12.23;nan
69982;BME280;57319;56.274;43.980;2024-01-15T05:33:50;98345.25;;;-12.34;nan
69982;BME280;57319;56.274;43.980;2024-01-15T05:36:16;98341.31;;;-12.31;nan
69982;BME280;57319;56.274;43.980;2024-01-15T05:38:41;98361.06;;;-12.32;nan
69982;BME280;57319;56.274;43.980;2024-01-15T05:41:07;98354.91;;;-12.24;nan
69982;BME280;57319;56.274;43.980;2024-01-15T05:43:33;98353.59;;;-12.17;nan
69982;BME280;57319;56.274;43.980;2024-01-15T05:45:58;98346.50;;;-12.11;nan
69982;BME280;57319;56.274;43.980;2024-01-15T05:48:24;98351.91;;;-12.18;nan
69982;BME280;57319;56.274;43.980;2024-01-15T05:50:49;98348.13;;;-12.12;nan
69982;BME280;57319;56.274;43.980;2024-01-15T05:53:15;98348.03;;;-12.13;nan
69982;BME280;57319;56.274;43.980;2024-01-15T05:55:40;98351.47;;;-12.11;nan
69982;BME280;57319;56.274;43.980;2024-01-15T05:58:06;98345.59;;;-11.97;nan
69982;BME280;57319;56.274;43.980;2024-01-15T06:00:32;98338.75;;;-12.01;nan
69982;BME280;57319;56.274;43.980;2024-01-15T06:03:00;98344.84;;;-12.11;nan
69982;BME280;57319;56.274;43.980;2024-01-15T06:05:26;98348.22;;;-12.10;nan
69982;BME280;57319;56.274;43.980;2024-01-15T06:07:51;98336.47;;;-11.98;nan
69982;BME280;57319;56.274;43.980;2024-01-15T06:10:17;98343.22;;;-11.95;nan
69982;BME280;57319;56.274;43.980;2024-01-15T06:12:44;98343.03;;;-11.82;nan
69982;BME280;57319;56.274;43.980;2024-01-15T06:15:09;98341.63;;;-11.93;nan
69982;BME280;57319;56.274;43.980;2024-01-15T06:17:35;98337.31;;;-11.97;nan
69982;BME280;57319;56.274;43.980;2024-01-15T06:20:01;98337.31;;;-11.81;nan
69982;BME280;57319;56.274;43.980;2024-01-15T06:22:28;98343.53;;;-11.72;nan
69982;BME280;57319;56.274;43.980;2024-01-15T06:24:53;98349.50;;;-11.85;nan
69982;BME280;57319;56.274;43.980;2024-01-15T06:27:19;98348.00;;;-11.82;nan
69982;BME280;57319;56.274;43.980;2024-01-15T06:29:45;98333.13;;;-11.82;nan
69982;BME280;57319;56.274;43.980;2024-01-15T06:32:14;98331.25;;;-11.86;nan
69982;BME280;57319;56.274;43.980;2024-01-15T06:34:40;98325.69;;;-11.65;nan
69982;BME280;57319;56.274;43.980;2024-01-15T06:37:06;98331.53;;;-11.65;nan
69982;BME280;57319;56.274;43.980;2024-01-15T06:39:31;98327.34;;;-11.49;nan
69982;BME280;57319;56.274;43.980;2024-01-15T06:41:57;98325.25;;;-11.58;nan
69982;BME280;57319;56.274;43.980;2024-01-15T06:44:23;98324.88;;;-11.49;nan
69982;BME280;57319;56.274;43.980;2024-01-15T06:46:48;98333.69;;;-11.54;nan
69982;BME280;57319;56.274;43.980;2024-01-15T06:49:14;98336.59;;;-11.47;nan
69982;BME280;57319;56.274;43.980;2024-01-15T06:51:40;98327.75;;;-11.58;nan
69982;BME280;57319;56.274;43.980;2024-01-15T06:54:05;98330.91;;;-11.61;nan
69982;BME280;57319;56.274;43.980;2024-01-15T06:56:31;98324.53;;;-11.39;nan
69982;BME280;57319;56.274;43.980;2024-01-15T06:58:57;98332.00;;;-11.39;nan
69982;BME280;57319;56.274;43.980;2024-01-15T07:01:23;98329.91;;;-11.48;nan
69982;BME280;57319;56.274;43.980;2024-01-15T07:03:49;98344.66;;;-11.18;nan
69982;BME280;57319;56.274;43.980;2024-01-15T07:06:15;98334.03;;;-11.15;nan
69982;BME280;57319;56.274;43.980;2024-01-15T07:08:41;98336.88;;;-11.24;nan
69982;BME280;57319;56.274;43.980;2024-01-15T07:11:07;98335.34;;;-11.05;nan
69982;BME280;57319;56.274;43.980;2024-01-15T07:13:32;98343.50;;;-11.24;nan
69982;BME280;57319;56.274;43.980;2024-01-15T07:15:58;98336.66;;;-11.12;nan
69982;BME280;57319;56.274;43.980;2024-01-15T07:18:24;98333.41;;;-11.11;nan
69982;BME280;57319;56.274;43.980;2024-01-15T07:20:50;98349.47;;;-10.88;nan
69982;BME280;57319;56.274;43.980;2024-01-15T07:23:16;98341.25;;;-10.69;nan
69982;BME280;57319;56.274;43.980;2024-01-15T07:25:42;98345.59;;;-10.65;nan
69982;BME280;57319;56.274;43.980;2024-01-15T07:28:08;98351.88;;;-11.22;nan
69982;BME280;57319;56.274;43.980;2024-01-15T07:30:34;98351.50;;;-10.97;nan
69982;BME280;57319;56.274;43.980;2024-01-15T07:32:59;98360.94;;;-10.90;nan
69982;BME280;57319;56.274;43.980;2024-01-15T07:35:25;98349.88;;;-10.62;nan
69982;BME280;57319;56.274;43.980;2024-01-15T07:37:51;98350.06;;;-10.76;nan
69982;BME280;57319;56.274;43.980;2024-01-15T07:40:16;98346.38;;;-10.66;nan
69982;BME280;57319;56.274;43.980;2024-01-15T07:42:42;98347.88;;;-10.69;nan
69982;BME280;57319;56.274;43.980;2024-01-15T07:45:11;98337.28;;;-10.65;nan
69982;BME280;57319;56.274;43.980;2024-01-15T07:47:36;98342.16;;;-11.01;nan
69982;BME280;57319;56.274;43.980;2024-01-15T07:50:03;98346.09;;;-10.88;nan
69982;BME280;57319;56.274;43.980;2024-01-15T07:52:30;98336.00;;;-10.75;nan
69982;BME280;57319;56.274;43.980;2024-01-15T07:54:56;98332.84;;;-10.36;nan
69982;BME280;57319;56.274;43.980;2024-01-15T07:57:21;98338.00;;;-10.32;nan
69982;BME280;57319;56.274;43.980;2024-01-15T07:59:48;98327.34;;;-10.29;nan
69982;BME280;57319;56.274;43.980;2024-01-15T08:02:13;98331.50;;;-10.48;nan
69982;BME280;57319;56.274;43.980;2024-01-15T08:04:39;98333.03;;;-10.32;nan
69982;BME280;57319;56.274;43.980;2024-01-15T08:07:05;98333.75;;;-10.16;nan
69982;BME280;57319;56.274;43.980;2024-01-15T08:09:32;98325.28;;;-10.20;nan
69982;BME280;57319;56.274;43.980;2024-01-15T08:11:57;98336.59;;;-10.27;nan
69982;BME280;57319;56.274;43.980;2024-01-15T08:14:23;98334.66;;;-10.14;nan
69982;BME280;57319;56.274;43.980;2024-01-15T08:16:49;98331.75;;;-10.06;nan
69982;BME280;57319;56.274;43.980;2024-01-15T08:19:15;98324.00;;;-10.12;nan
69982;BME280;57319;56.274;43.980;2024-01-15T08:21:40;98327.75;;;-10.02;nan
69982;BME280;57319;56.274;43.980;2024-01-15T08:24:06;98320.94;;;-10.06;nan
69982;BME280;57319;56.274;43.980;2024-01-15T08:26:32;98322.72;;;-10.03;nan
69982;BME280;57319;56.274;43.980;2024-01-15T08:28:58;98313.94;;;-10.51;nan
69982;BME280;57319;56.274;43.980;2024-01-15T08:31:24;98323.63;;;-10.19;nan
69982;BME280;57319;56.274;43.980;2024-01-15T08:33:49;98322.50;;;-10.08;nan
69982;BME280;57319;56.274;43.980;2024-01-15T08:36:15;98314.63;;;-10.17;nan
69982;BME280;57319;56.274;43.980;2024-01-15T08:38:40;98324.84;;;-10.11;nan
69982;BME280;57319;56.274;43.980;2024-01-15T08:41:06;98323.41;;;-9.88;nan
69982;BME280;57319;56.274;43.980;2024-01-15T08:43:34;98323.66;;;-10.01;nan
69982;BME280;57319;56.274;43.980;2024-01-15T08:45:59;98326.69;;;-10.07;nan
69982;BME280;57319;56.274;43.980;2024-01-15T08:48:25;98318.53;;;-10.23;nan
69982;BME280;57319;56.274;43.980;2024-01-15T08:50:54;98312.97;;;-9.99;nan
69982;BME280;57319;56.274;43.980;2024-01-15T08:53:20;98316.88;;;-9.86;nan
69982;BME280;57319;56.274;43.980;2024-01-15T08:55:46;98317.66;;;-10.05;nan
69982;BME280;57319;56.274;43.980;2024-01-15T08:58:13;98330.81;;;-10.08;nan
69982;BME280;57319;56.274;43.980;2024-01-15T09:00:39;98318.94;;;-9.95;nan
69982;BME280;57319;56.274;43.980;2024-01-15T09:03:04;98306.97;;;-9.84;nan
69982;BME280;57319;56.274;43.980;2024-01-15T09:05:30;98315.56;;;-9.78;nan
69982;BME280;57319;56.274;43.980;2024-01-15T09:07:56;98309.50;;;-9.65;nan
69982;BME280;57319;56.274;43.980;2024-01-15T09:10:21;98319.97;;;-10.10;nan
69982;BME280;57319;56.274;43.980;2024-01-15T09:12:47;98314.63;;;-9.80;nan
69982;BME280;57319;56.274;43.980;2024-01-15T09:15:14;98323.06;;;-9.58;nan
69982;BME280;57319;56.274;43.980;2024-01-15T09:17:40;98320.75;;;-9.53;nan
69982;BME280;57319;56.274;43.980;2024-01-15T09:20:06;98314.81;;;-9.57;nan
69982;BME280;57319;56.274;43.980;2024-01-15T09:22:32;98313.16;;;-9.57;nan
69982;BME280;57319;56.274;43.980;2024-01-15T09:24:58;98313.56;;;-9.47;nan
69982;BME280;57319;56.274;43.980;2024-01-15T09:27:24;98310.84;;;-9.72;nan
69982;BME280;57319;56.274;43.980;2024-01-15T09:29:52;98313.22;;;-9.75;nan
69982;BME280;57319;56.274;43.980;2024-01-15T09:32:18;98316.91;;;-9.66;nan
69982;BME280;57319;56.274;43.980;2024-01-15T09:34:45;98315.78;;;-9.53;nan
69982;BME280;57319;56.274;43.980;2024-01-15T09:37:12;98309.50;;;-9.65;nan
69982;BME280;57319;56.274;43.980;2024-01-15T09:39:37;98319.03;;;-9.56;nan
69982;BME280;57319;56.274;43.980;2024-01-15T09:42:04;98323.00;;;-9.60;nan
69982;BME280;57319;56.274;43.980;2024-01-15T09:44:30;98321.69;;;-9.51;nan
69982;BME280;57319;56.274;43.980;2024-01-15T09:46:57;98326.22;;;-9.43;nan
69982;BME280;57319;56.274;43.980;2024-01-15T09:49:23;98330.28;;;-9.64;nan
69982;BME280;57319;56.274;43.980;2024-01-15T09:51:49;98334.41;;;-9.65;nan
69982;BME280;57319;56.274;43.980;2024-01-15T09:54:15;98332.97;;;-9.60;nan
69982;BME280;57319;56.274;43.980;2024-01-15T09:56:45;98337.50;;;-9.51;nan
69982;BME280;57319;56.274;43.980;2024-01-15T09:59:18;98338.06;;;-9.57;nan
69982;BME280;57319;56.274;43.980;2024-01-15T10:01:45;98337.00;;;-9.44;nan
69982;BME280;57319;56.274;43.980;2024-01-15T10:04:11;98332.00;;;-9.44;nan
69982;BME280;57319;56.274;43.980;2024-01-15T10:06:44;98331.59;;;-9.33;nan
69982;BME280;57319;56.274;43.980;2024-01-15T10:09:15;98328.41;;;-9.31;nan
69982;BME280;57319;56.274;43.980;2024-01-15T10:11:42;98331.72;;;-9.50;nan
69982;BME280;57319;56.274;43.980;2024-01-15T10:14:09;98329.19;;;-9.32;nan
69982;BME280;57319;56.274;43.980;2024-01-15T10:16:42;98326.28;;;-9.41;nan
69982;BME280;57319;56.274;43.980;2024-01-15T10:19:09;98320.94;;;-9.31;nan
69982;BME280;57319;56.274;43.980;2024-01-15T10:21:36;98314.44;;;-9.27;nan
69982;BME280;57319;56.274;43.980;2024-01-15T10:24:03;98313.25;;;-9.35;nan
69982;BME280;57319;56.274;43.980;2024-01-15T10:26:29;98308.53;;;-9.29;nan
69982;BME280;57319;56.274;43.980;2024-01-15T10:28:55;98306.44;;;-9.40;nan
69982;BME280;57319;56.274;43.980;2024-01-15T10:31:20;98310.44;;;-9.43;nan
69982;BME280;57319;56.274;43.980;2024-01-15T10:33:50;98312.97;;;-9.42;nan
69982;BME280;57319;56.274;43.980;2024-01-15T10:36:16;98307.09;;;-9.81;nan
69982;BME280;57319;56.274;43.980;2024-01-15T10:38:46;98308.03;;;-9.79;nan
69982;BME280;57319;56.274;43.980;2024-01-15T10:41:12;98315.00;;;-9.52;nan
69982;BME280;57319;56.274;43.980;2024-01-15T10:43:38;98327.28;;;-9.38;nan
69982;BME280;57319;56.274;43.980;2024-01-15T10:46:06;98330.25;;;-9.46;nan
69982;BME280;57319;56.274;43.980;2024-01-15T10:48:33;98331.72;;;-9.50;nan
69982;BME280;57319;56.274;43.980;2024-01-15T10:51:00;98334.81;;;-9.36;nan
69982;BME280;57319;56.274;43.980;2024-01-15T10:53:26;98340.53;;;-9.39;nan
69982;BME280;57319;56.274;43.980;2024-01-15T10:55:53;98323.81;;;-9.22;nan
69982;BME280;57319;56.274;43.980;2024-01-15T10:58:20;98324.47;;;-9.26;nan
69982;BME280;57319;56.274;43.980;2024-01-15T11:00:46;98321.75;;;-9.30;nan
69982;BME280;57319;56.274;43.980;2024-01-15T11:03:12;98321.56;;;-9.15;nan
69982;BME280;57319;56.274;43.980;2024-01-15T11:08:07;98310.41;;;-9.24;nan
69982;BME280;57319;56.274;43.980;2024-01-15T11:10:51;98313.97;;;-9.38;nan
69982;BME280;57319;56.274;43.980;2024-01-15T11:16:01;98313.97;;;-9.18;nan
69982;BME280;57319;56.274;43.980;2024-01-15T11:19:16;98313.38;;;-9.52;nan
69982;BME280;57319;56.274;43.980;2024-01-15T11:28:54;98300.28;;;-9.28;nan
69982;BME280;57319;56.274;43.980;2024-01-15T11:31:29;98297.84;;;-9.27;nan
69982;BME280;57319;56.274;43.980;2024-01-15T11:33:55;98298.31;;;-9.35;nan
69982;BME280;57319;56.274;43.980;2024-01-15T11:39:44;98305.97;;;-9.31;nan
69982;BME280;57319;56.274;43.980;2024-01-15T11:42:11;98306.22;;;-9.25;nan
69982;BME280;57319;56.274;43.980;2024-01-15T11:44:37;98306.88;;;-9.09;nan
69982;BME280;57319;56.274;43.980;2024-01-15T11:50:01;98299.28;;;-9.51;nan
69982;BME280;57319;56.274;43.980;2024-01-15T11:52:34;98293.38;;;-9.53;nan
69982;BME280;57319;56.274;43.980;2024-01-15T11:58:01;98294.81;;;-9.19;nan
69982;BME280;57319;56.274;43.980;2024-01-15T12:00:29;98293.22;;;-9.37;nan
69982;BME280;57319;56.274;43.980;2024-01-15T12:02:54;98292.00;;;-9.27;nan
69982;BME280;57319;56.274;43.980;2024-01-15T12:05:22;98291.75;;;-9.33;nan
69982;BME280;57319;56.274;43.980;2024-01-15T12:07:49;98294.09;;;-9.36;nan
69982;BME280;57319;56.274;43.980;2024-01-15T12:10:18;98294.56;;;-9.26;nan
69982;BME280;57319;56.274;43.980;2024-01-15T12:13:17;98294.56;;;-9.26;nan
69982;BME280;57319;56.274;43.980;2024-01-15T12:19:28;98286.75;;;-9.33;nan
69982;BME280;57319;56.274;43.980;2024-01-15T12:21:54;98288.13;;;-9.60;nan
69982;BME280;57319;56.274;43.980;2024-01-15T12:24:20;98288.66;;;-9.47;nan
69982;BME280;57319;56.274;43.980;2024-01-15T12:26:46;98284.06;;;-9.58;nan
69982;BME280;57319;56.274;43.980;2024-01-15T12:29:12;98289.00;;;-9.40;nan
69982;BME280;57319;56.274;43.980;2024-01-15T12:31:37;98294.00;;;-9.58;nan
69982;BME280;57319;56.274;43.980;2024-01-15T12:34:03;98295.78;;;-9.55;nan
69982;BME280;57319;56.274;43.980;2024-01-15T12:36:32;98301.41;;;-9.79;nan
69982;BME280;57319;56.274;43.980;2024-01-15T12:39:00;98287.41;;;-9.57;nan
69982;BME280;57319;56.274;43.980;2024-01-15T12:41:26;98288.53;;;-9.50;nan
69982;BME280;57319;56.274;43.980;2024-01-15T12:43:52;98286.03;;;-9.50;nan
69982;BME280;57319;56.274;43.980;2024-01-15T12:46:17;98295.66;;;-9.39;nan
69982;BME280;57319;56.274;43.980;2024-01-15T12:48:44;98288.13;;;-9.40;nan
69982;BME280;57319;56.274;43.980;2024-01-15T12:51:16;98306.63;;;-9.55;nan
69982;BME280;57319;56.274;43.980;2024-01-15T12:53:42;98299.34;;;-9.50;nan
69982;BME280;57319;56.274;43.980;2024-01-15T12:56:08;98305.16;;;-9.49;nan
69982;BME280;57319;56.274;43.980;2024-01-15T12:58:34;98274.81;;;-9.41;nan
69982;BME280;57319;56.274;43.980;2024-01-15T13:01:00;98294.88;;;-9.95;nan
69982;BME280;57319;56.274;43.980;2024-01-15T13:03:25;98289.97;;;-9.56;nan
69982;BME280;57319;56.274;43.980;2024-01-15T13:05:51;98269.84;;;-9.60;nan
69982;BME280;57319;56.274;43.980;2024-01-15T13:08:17;98311.97;;;-9.84;nan
69982;BME280;57319;56.274;43.980;2024-01-15T13:10:43;98287.16;;;-10.01;nan
69982;BME280;57319;56.274;43.980;2024-01-15T13:13:09;98308.97;;;-9.95;nan
69982;BME280;57319;56.274;43.980;2024-01-15T13:15:35;98303.19;;;-9.76;nan
69982;BME280;57319;56.274;43.980;2024-01-15T13:18:01;98299.22;;;-9.91;nan
69982;BME280;57319;56.274;43.980;2024-01-15T13:20:26;98304.25;;;-9.71;nan
69982;BME280;57319;56.274;43.980;2024-01-15T13:22:52;98297.25;;;-9.60;nan